createdAt,value
2023-04-22T00:00:09.180Z,36.44
2023-04-22T00:02:37.298Z,36.31
2023-04-22T00:05:04.962Z,36.57
2023-04-22T00:07:31.996Z,36.43
2023-04-22T00:10:00.305Z,36.65
2023-04-22T00:12:27.247Z,36.57
2023-04-22T00:14:54.137Z,36.36
2023-04-22T00:17:21.088Z,36.58
2023-04-22T00:19:48.078Z,36.63
2023-04-22T00:22:15.083Z,36.52
2023-04-22T00:24:42.404Z,36.63
2023-04-22T00:27:11.418Z,36.42
2023-04-22T00:29:39.472Z,36.78
2023-04-22T00:32:06.728Z,36.73
2023-04-22T00:34:33.585Z,36.71
2023-04-22T00:37:01.262Z,36.76
2023-04-22T00:39:28.238Z,36.71
2023-04-22T00:41:55.601Z,36.83
2023-04-22T00:44:26.307Z,36.76
2023-04-22T00:46:53.376Z,36.99
2023-04-22T00:49:20.944Z,36.95
2023-04-22T00:51:47.875Z,36.91
2023-04-22T00:54:14.734Z,36.77
2023-04-22T00:56:41.913Z,36.80
2023-04-22T00:59:10.718Z,36.79
2023-04-22T01:01:39.397Z,36.83
2023-04-22T01:04:06.749Z,36.86
2023-04-22T01:06:35.309Z,36.89
2023-04-22T01:09:02.554Z,36.98
2023-04-22T01:11:29.829Z,36.86
2023-04-22T01:13:56.874Z,36.81
2023-04-22T01:16:25.843Z,36.87
2023-04-22T01:18:54.195Z,36.92
2023-04-22T01:21:21.328Z,37.04
2023-04-22T01:23:49.697Z,36.97
2023-04-22T01:26:16.685Z,36.67
2023-04-22T01:28:43.899Z,36.68
2023-04-22T01:31:10.927Z,36.92
2023-04-22T01:33:38.592Z,36.92
2023-04-22T01:36:06.129Z,37.09
2023-04-22T01:38:34.407Z,36.97
2023-04-22T01:41:03.007Z,37.12
2023-04-22T01:43:30.828Z,36.95
2023-04-22T01:45:58.092Z,37.11
2023-04-22T01:48:25.090Z,37.15
2023-04-22T01:50:53.040Z,37.10
2023-04-22T01:53:20.132Z,36.96
2023-04-22T01:55:47.814Z,36.89
2023-04-22T01:58:16.138Z,37.21
2023-04-22T02:00:43.208Z,37.07
2023-04-22T02:03:10.573Z,36.91
2023-04-22T02:05:38.134Z,37.05
2023-04-22T02:08:05.370Z,37.01
2023-04-22T02:10:32.397Z,37.20
2023-04-22T02:12:59.382Z,36.92
2023-04-22T02:15:27.622Z,37.03
2023-04-22T02:17:54.768Z,37.13
2023-04-22T02:20:21.662Z,37.22
2023-04-22T02:22:48.738Z,37.37
2023-04-22T02:29:21.557Z,37.94
2023-04-22T02:31:50.305Z,38.12
2023-04-22T02:34:17.296Z,38.44
2023-04-22T02:36:44.219Z,38.38
2023-04-22T02:39:11.513Z,38.53
2023-04-22T02:41:38.429Z,38.76
2023-04-22T02:44:05.598Z,38.76
2023-04-22T02:46:32.504Z,38.87
2023-04-22T02:49:00.823Z,39.15
2023-04-22T02:51:28.219Z,39.52
2023-04-22T02:53:55.101Z,39.77
2023-04-22T02:56:21.992Z,39.52
2023-04-22T02:58:48.931Z,39.63
2023-04-22T03:01:15.901Z,39.54
2023-04-22T03:03:43.047Z,39.72
2023-04-22T03:06:11.410Z,39.83
2023-04-22T03:08:38.287Z,39.92
2023-04-22T03:11:05.657Z,40.31
2023-04-22T03:13:32.618Z,40.08
2023-04-22T03:15:59.540Z,40.13
2023-04-22T03:18:26.459Z,40.15
2023-04-22T03:20:53.349Z,40.24
2023-04-22T03:23:21.662Z,40.12
2023-04-22T03:25:48.616Z,39.88
2023-04-22T03:28:15.564Z,40.24
2023-04-22T03:30:42.465Z,40.02
2023-04-22T03:33:09.497Z,40.04
2023-04-22T03:35:36.383Z,40.08
2023-04-22T03:38:03.310Z,40.32
2023-04-22T03:40:31.554Z,40.13
2023-04-22T03:42:58.489Z,40.18
2023-04-22T03:45:25.493Z,40.18
2023-04-22T03:47:52.658Z,40.08
2023-04-22T03:50:19.760Z,40.35
2023-04-22T03:52:46.653Z,40.58
2023-04-22T03:55:13.532Z,40.63
2023-04-22T03:57:41.797Z,40.64
2023-04-22T04:00:10.006Z,40.64
2023-04-22T04:02:37.067Z,40.59
2023-04-22T04:05:05.054Z,40.54
2023-04-22T04:07:32.044Z,40.56
2023-04-22T04:09:58.935Z,40.75
2023-04-22T04:12:25.810Z,40.70
2023-04-22T04:14:54.003Z,40.50
2023-04-22T04:17:21.662Z,40.48
2023-04-22T04:19:48.716Z,40.42
2023-04-22T04:22:15.639Z,40.51
2023-04-22T04:24:42.615Z,40.38
2023-04-22T04:27:09.850Z,40.71
2023-04-22T04:29:36.781Z,40.85
2023-04-22T04:32:05.416Z,41.00
2023-04-22T04:34:34.277Z,40.89
2023-04-22T04:37:01.233Z,40.77
2023-04-22T04:39:28.535Z,41.16
2023-04-22T04:41:55.617Z,41.38
2023-04-22T04:44:22.807Z,41.75
2023-04-22T04:46:50.522Z,41.85
2023-04-22T04:49:18.755Z,41.55
2023-04-22T04:51:45.625Z,42.17
2023-04-22T04:54:12.511Z,41.89
2023-04-22T04:56:39.401Z,42.16
2023-04-22T04:59:06.307Z,42.18
2023-04-22T05:01:33.315Z,41.92
2023-04-22T05:04:00.405Z,41.77
2023-04-22T05:06:28.690Z,42.11
2023-04-22T05:08:55.594Z,41.85
2023-04-22T05:11:22.622Z,42.48
2023-04-22T05:13:49.500Z,42.19
2023-04-22T05:16:16.602Z,42.21
2023-04-22T05:18:43.478Z,41.81
2023-04-22T05:21:10.398Z,42.19
2023-04-22T05:23:39.415Z,41.98
2023-04-22T05:26:06.356Z,41.76
2023-04-22T05:28:33.285Z,41.84
2023-04-22T05:31:00.182Z,41.69
2023-04-22T05:33:27.077Z,41.67
2023-04-22T05:35:54.038Z,41.11
2023-04-22T05:38:20.969Z,41.51
2023-04-22T05:40:49.158Z,41.48
2023-04-22T05:43:16.341Z,41.67
2023-04-22T05:45:43.290Z,42.07
2023-04-22T05:48:10.269Z,41.64
2023-04-22T05:50:37.185Z,42.00
2023-04-22T05:53:04.099Z,41.89
2023-04-22T05:55:31.397Z,41.56
2023-04-22T05:57:59.749Z,41.54
2023-04-22T06:00:26.705Z,41.63
2023-04-22T06:02:53.769Z,41.51
2023-04-22T06:05:20.870Z,41.22
2023-04-22T06:07:47.865Z,41.09
2023-04-22T06:10:14.748Z,41.15
2023-04-22T06:12:41.632Z,40.89
2023-04-22T06:15:11.557Z,40.78
2023-04-22T06:17:39.269Z,40.64
2023-04-22T06:20:07.783Z,40.36
2023-04-22T06:22:34.662Z,40.34
2023-04-22T06:25:01.521Z,40.36
2023-04-22T06:27:28.565Z,40.53
2023-04-22T06:29:55.460Z,40.33
2023-04-22T06:32:23.628Z,40.16
2023-04-22T06:34:50.522Z,39.85
2023-04-22T06:37:17.991Z,40.21
2023-04-22T06:39:44.919Z,40.17
2023-04-22T06:42:11.853Z,39.93
2023-04-22T06:44:38.718Z,40.10
2023-04-22T06:47:05.708Z,40.27
2023-04-22T06:49:35.545Z,40.38
2023-04-22T06:52:02.476Z,40.35
2023-04-22T06:54:29.433Z,40.47
2023-04-22T06:56:56.521Z,40.48
2023-04-22T06:59:23.456Z,40.34
2023-04-22T07:01:50.381Z,40.78
2023-04-22T07:04:17.294Z,40.42
2023-04-22T07:06:46.161Z,40.57
2023-04-22T07:09:13.108Z,40.59
2023-04-22T07:11:39.994Z,40.61
2023-04-22T07:14:06.976Z,40.73
2023-04-22T07:16:33.932Z,41.07
2023-04-22T07:19:00.885Z,41.10
2023-04-22T07:21:27.752Z,40.89
2023-04-22T07:23:56.000Z,40.93
2023-04-22T07:26:22.988Z,40.59
2023-04-22T07:28:50.233Z,40.64
2023-04-22T07:31:17.260Z,40.45
2023-04-22T07:33:44.204Z,40.41
2023-04-22T07:36:11.265Z,39.69
2023-04-22T07:38:38.241Z,39.54
2023-04-22T07:41:06.710Z,38.84
2023-04-22T07:43:33.673Z,37.06
2023-04-22T07:46:00.804Z,35.72
2023-04-22T07:48:27.853Z,34.63
2023-04-22T07:50:54.755Z,33.93
2023-04-22T07:53:21.714Z,32.88
2023-04-22T07:55:49.624Z,32.78
2023-04-22T07:58:17.931Z,31.26
2023-04-22T08:00:45.058Z,30.47
2023-04-22T08:03:12.261Z,30.75
2023-04-22T08:05:39.465Z,30.02
2023-04-22T08:08:07.264Z,29.98
2023-04-22T08:10:34.190Z,29.17
2023-04-22T08:13:01.413Z,29.23
2023-04-22T08:15:30.487Z,29.88
2023-04-22T08:17:57.582Z,29.37
2023-04-22T08:20:25.734Z,27.93
2023-04-22T08:22:58.016Z,28.35
2023-04-22T08:25:25.086Z,28.63
2023-04-22T08:27:52.114Z,28.14
2023-04-22T08:30:19.727Z,27.53
2023-04-22T08:32:48.086Z,26.13
2023-04-22T08:35:15.079Z,25.94
2023-04-22T08:37:42.137Z,25.71
2023-04-22T08:40:10.088Z,24.97
2023-04-22T08:42:38.039Z,24.72
2023-04-22T08:45:06.538Z,24.11
2023-04-22T08:47:34.954Z,22.97
2023-04-22T08:50:06.174Z,22.69
2023-04-22T08:52:33.323Z,21.17
2023-04-22T08:55:00.690Z,19.86
2023-04-22T08:57:29.517Z,20.25
2023-04-22T08:59:56.972Z,20.19
2023-04-22T09:02:25.865Z,20.48
2023-04-22T09:04:56.300Z,21.35
2023-04-22T09:07:28.357Z,21.87
2023-04-22T09:09:56.371Z,21.96
2023-04-22T09:12:25.267Z,22.66
2023-04-22T09:14:53.026Z,21.62
2023-04-22T09:17:33.108Z,21.67
2023-04-22T09:20:02.161Z,20.06
2023-04-22T09:22:39.802Z,19.55
2023-04-22T09:25:15.976Z,19.00
2023-04-22T09:27:49.614Z,18.86
2023-04-22T09:30:19.922Z,19.05
2023-04-22T09:32:54.982Z,18.82
2023-04-22T09:35:31.600Z,18.02
2023-04-22T09:38:02.293Z,18.61
2023-04-22T09:40:31.552Z,19.07
2023-04-22T09:43:03.140Z,18.66
2023-04-22T09:45:32.704Z,17.97
2023-04-22T09:48:06.155Z,18.08
2023-04-22T09:50:33.229Z,18.47
2023-04-22T09:53:05.447Z,18.75
2023-04-22T09:55:37.669Z,19.16
2023-04-22T09:58:08.736Z,17.79
2023-04-22T10:00:40.536Z,18.55
2023-04-22T10:03:09.831Z,18.43
2023-04-22T10:05:38.341Z,17.87
2023-04-22T10:08:11.870Z,17.94
2023-04-22T10:10:39.832Z,17.67
2023-04-22T10:13:07.885Z,18.53
2023-04-22T10:15:39.250Z,17.92
2023-04-22T10:18:12.836Z,18.29
2023-04-22T10:20:42.938Z,17.29
2023-04-22T10:23:20.742Z,17.46
2023-04-22T10:25:49.172Z,17.42
2023-04-22T10:28:20.917Z,17.14
2023-04-22T10:30:49.096Z,17.31
2023-04-22T10:33:37.039Z,17.87
2023-04-22T10:36:19.065Z,17.10
2023-04-22T10:39:18.762Z,16.59
2023-04-22T10:41:57.794Z,16.61
2023-04-22T10:44:30.625Z,16.86
2023-04-22T10:47:00.154Z,17.46
2023-04-22T10:49:31.859Z,18.39
2023-04-22T10:52:01.001Z,18.92
2023-04-22T10:54:58.835Z,19.69
2023-04-22T10:57:37.651Z,19.92
2023-04-22T11:00:25.082Z,18.46
2023-04-22T11:03:06.200Z,19.07
2023-04-22T11:05:35.562Z,18.18
2023-04-22T11:08:07.289Z,18.00
2023-04-22T11:10:44.062Z,18.01
2023-04-22T11:13:15.378Z,18.63
2023-04-22T11:15:44.868Z,19.08
2023-04-22T11:18:17.977Z,19.57
2023-04-22T11:20:45.537Z,19.34
2023-04-22T11:23:16.819Z,18.85
2023-04-22T11:25:45.153Z,19.26
2023-04-22T11:28:12.317Z,18.95
2023-04-22T11:30:39.378Z,18.36
2023-04-22T11:33:06.364Z,18.99
2023-04-22T11:35:35.216Z,18.88
2023-04-22T11:38:04.870Z,18.90
2023-04-22T11:40:37.777Z,19.30
2023-04-22T11:43:09.368Z,20.17
2023-04-22T11:45:38.865Z,20.35
2023-04-22T11:48:08.462Z,21.01
2023-04-22T11:50:37.707Z,20.79
2023-04-22T11:53:13.873Z,20.42
2023-04-22T11:55:42.701Z,20.28
2023-04-22T11:58:14.749Z,20.24
2023-04-22T12:00:44.906Z,19.58
2023-04-22T12:03:15.855Z,20.35
2023-04-22T12:05:46.154Z,20.19
2023-04-22T12:08:16.221Z,20.12
2023-04-22T12:10:45.894Z,19.74
2023-04-22T12:13:20.844Z,20.23
2023-04-22T12:15:48.873Z,21.00
2023-04-22T12:18:15.860Z,21.01
2023-04-22T12:20:43.100Z,21.40
2023-04-22T12:23:14.845Z,21.82
2023-04-22T12:25:43.493Z,21.77
2023-04-22T12:28:11.333Z,22.28
2023-04-22T12:30:39.565Z,22.13
2023-04-22T12:33:06.617Z,22.22
2023-04-22T12:35:33.785Z,23.16
2023-04-22T12:38:01.659Z,22.47
2023-04-22T12:40:29.074Z,22.78
2023-04-22T12:42:56.065Z,23.54
2023-04-22T12:45:23.189Z,22.88
2023-04-22T12:47:53.746Z,22.21
2023-04-22T12:50:21.344Z,22.75
2023-04-22T12:52:51.566Z,21.55
2023-04-22T12:55:19.710Z,22.01
2023-04-22T12:57:50.022Z,21.28
2023-04-22T13:00:17.653Z,21.73
2023-04-22T13:02:46.608Z,21.92
2023-04-22T13:05:16.203Z,22.15
2023-04-22T13:07:45.421Z,21.86
2023-04-22T13:10:16.874Z,22.18
2023-04-22T13:12:44.449Z,22.75
2023-04-22T13:15:12.887Z,22.44
2023-04-22T13:17:40.591Z,22.58
2023-04-22T13:20:09.488Z,22.49
2023-04-22T13:22:38.652Z,22.18
2023-04-22T13:25:07.224Z,21.51
2023-04-22T13:27:34.661Z,21.41
2023-04-22T13:30:01.838Z,21.27
2023-04-22T13:32:29.177Z,21.46
2023-04-22T13:34:56.086Z,21.31
2023-04-22T13:37:23.037Z,22.26
2023-04-22T13:39:51.250Z,21.77
2023-04-22T13:42:18.684Z,21.35
2023-04-22T13:44:45.698Z,21.31
2023-04-22T13:47:12.881Z,21.36
2023-04-22T13:49:40.023Z,20.82
2023-04-22T13:52:07.190Z,21.42
2023-04-22T13:54:34.120Z,21.06
2023-04-22T13:57:03.217Z,21.21
2023-04-22T13:59:31.413Z,21.27
2023-04-22T14:01:58.408Z,21.04
2023-04-22T14:04:25.585Z,21.32
2023-04-22T14:06:52.723Z,21.34
2023-04-22T14:09:20.090Z,21.28
2023-04-22T14:11:47.215Z,21.83
2023-04-22T14:14:15.896Z,21.35
2023-04-22T14:16:43.421Z,21.96
2023-04-22T14:19:11.363Z,22.73
2023-04-22T14:21:38.385Z,22.93
2023-04-22T14:24:05.832Z,22.41
2023-04-22T14:26:32.926Z,22.17
2023-04-22T14:28:59.945Z,22.79
2023-04-22T14:31:28.268Z,22.93
2023-04-22T14:33:55.901Z,23.06
2023-04-22T14:36:27.521Z,22.73
2023-04-22T14:38:54.402Z,23.45
2023-04-22T14:41:21.508Z,24.12
2023-04-22T14:43:48.530Z,24.18
2023-04-22T14:46:15.623Z,24.50
2023-04-22T14:48:44.702Z,24.49
2023-04-22T14:51:11.839Z,24.60
2023-04-22T14:53:38.888Z,25.23
2023-04-22T14:56:05.882Z,25.17
2023-04-22T14:58:32.805Z,24.92
2023-04-22T15:01:00.113Z,25.17
2023-04-22T15:03:27.699Z,25.61
2023-04-22T15:05:56.024Z,25.41
2023-04-22T15:08:25.114Z,25.64
2023-04-22T15:10:52.337Z,25.69
2023-04-22T15:13:19.795Z,25.88
2023-04-22T15:15:47.012Z,26.08
2023-04-22T15:18:14.089Z,26.46
2023-04-22T15:20:41.675Z,26.60
2023-04-22T15:23:09.984Z,26.69
2023-04-22T15:25:37.650Z,26.48
2023-04-22T15:28:04.644Z,26.55
2023-04-22T15:30:31.960Z,26.50
2023-04-22T15:32:59.003Z,26.11
2023-04-22T15:35:25.982Z,26.65
2023-04-22T15:37:54.053Z,26.50
2023-04-22T15:40:22.342Z,26.20
2023-04-22T15:42:49.243Z,26.07
2023-04-22T15:45:16.295Z,25.85
2023-04-22T15:47:43.275Z,25.17
2023-04-22T15:50:11.197Z,25.05
2023-04-22T15:52:39.101Z,24.33
2023-04-22T15:55:07.742Z,24.80
2023-04-22T15:57:36.298Z,24.18
2023-04-22T16:00:14.158Z,24.49
2023-04-22T16:02:44.416Z,25.03
2023-04-22T16:05:12.611Z,24.77
2023-04-22T16:07:40.175Z,24.94
2023-04-22T16:10:09.548Z,24.64
2023-04-22T16:12:37.796Z,24.23
2023-04-22T16:15:07.145Z,24.50
2023-04-22T16:17:34.528Z,24.33
2023-04-22T16:20:01.728Z,24.62
2023-04-22T16:22:28.770Z,25.24
2023-04-22T16:24:55.721Z,25.37
2023-04-22T16:27:22.682Z,25.63
2023-04-22T16:29:50.858Z,25.72
2023-04-22T16:32:17.777Z,25.88
2023-04-22T16:34:44.826Z,25.64
2023-04-22T16:37:11.792Z,25.92
2023-04-22T16:39:38.858Z,26.23
2023-04-22T16:42:06.528Z,26.28
2023-04-22T16:44:33.436Z,26.49
2023-04-22T16:47:01.763Z,26.87
2023-04-22T16:49:28.664Z,26.67
2023-04-22T16:51:55.583Z,27.23
2023-04-22T16:54:22.504Z,27.07
2023-04-22T16:56:49.387Z,27.42
2023-04-22T16:59:16.303Z,27.37
2023-04-22T17:01:43.342Z,27.56
2023-04-22T17:04:12.103Z,27.70
2023-04-22T17:06:40.700Z,27.97
2023-04-22T17:09:09.078Z,27.89
2023-04-22T17:11:36.044Z,28.11
2023-04-22T17:14:03.377Z,28.33
2023-04-22T17:16:30.590Z,28.12
2023-04-22T17:18:57.527Z,28.31
2023-04-22T17:21:26.987Z,28.35
2023-04-22T17:23:54.037Z,28.14
2023-04-22T17:26:21.316Z,28.57
2023-04-22T17:28:48.319Z,28.57
2023-04-22T17:31:15.854Z,28.69
2023-04-22T17:33:43.076Z,29.01
2023-04-22T17:36:10.035Z,28.99
2023-04-22T17:38:38.321Z,28.90
2023-04-22T17:41:05.371Z,29.19
2023-04-22T17:43:32.305Z,28.90
2023-04-22T17:45:59.214Z,28.94
2023-04-22T17:48:26.271Z,28.93
2023-04-22T17:50:53.250Z,29.37
2023-04-22T17:53:20.217Z,29.19
2023-04-22T17:55:48.410Z,29.29
2023-04-22T17:58:15.299Z,31.89
2023-04-22T18:00:42.294Z,34.23
2023-04-22T18:03:09.369Z,35.12
2023-04-22T18:05:42.870Z,37.06
2023-04-22T18:08:10.757Z,37.62
2023-04-22T18:10:38.789Z,38.45
2023-04-22T18:13:07.389Z,39.15
2023-04-22T18:15:34.391Z,40.19
2023-04-22T18:18:01.319Z,40.34
2023-04-22T18:20:28.500Z,40.48
2023-04-22T18:22:56.431Z,41.19
2023-04-22T18:25:24.620Z,42.00
2023-04-22T18:27:55.001Z,42.16
2023-04-22T18:30:26.485Z,42.91
2023-04-22T18:32:53.643Z,43.60
2023-04-22T18:35:21.052Z,43.21
2023-04-22T18:37:48.138Z,43.95
2023-04-22T18:40:17.197Z,44.17
2023-04-22T18:42:45.099Z,44.20
2023-04-22T18:45:12.412Z,44.34
2023-04-22T18:47:41.177Z,44.47
2023-04-22T18:50:08.845Z,44.29
2023-04-22T18:52:36.477Z,44.68
2023-04-22T18:55:04.477Z,45.07
2023-04-22T18:57:32.528Z,44.88
2023-04-22T18:59:59.700Z,44.95
2023-04-22T19:02:27.775Z,45.25
2023-04-22T19:04:56.806Z,45.42
2023-04-22T19:07:23.832Z,45.69
2023-04-22T19:09:50.726Z,46.04
2023-04-22T19:12:19.389Z,46.26
2023-04-22T19:14:47.907Z,46.07
2023-04-22T19:17:15.049Z,46.18
2023-04-22T19:19:42.269Z,46.84
2023-04-22T19:22:12.262Z,46.71
2023-04-22T19:24:39.762Z,46.74
2023-04-22T19:27:12.116Z,46.90
2023-04-22T19:29:39.752Z,47.18
2023-04-22T19:32:07.403Z,47.17
2023-04-22T19:34:34.306Z,47.40
2023-04-22T19:37:02.835Z,47.78
2023-04-22T19:39:31.312Z,47.85
2023-04-22T19:41:58.452Z,48.27
2023-04-22T19:44:25.602Z,48.00
2023-04-22T19:46:52.946Z,47.93
2023-04-22T19:49:21.356Z,48.17
2023-04-22T19:51:49.395Z,48.40
2023-04-22T19:54:20.653Z,48.20
2023-04-22T19:56:49.911Z,48.17
2023-04-22T19:59:17.325Z,48.28
2023-04-22T20:01:45.389Z,48.29
2023-04-22T20:04:13.366Z,48.47
2023-04-22T20:06:44.688Z,48.24
2023-04-22T20:09:13.032Z,49.03
2023-04-22T20:11:41.334Z,48.96
2023-04-22T20:14:10.043Z,48.95
2023-04-22T20:16:37.949Z,48.82
2023-04-22T20:19:05.150Z,48.95
2023-04-22T20:21:34.408Z,49.22
2023-04-22T20:24:04.374Z,48.87
2023-04-22T20:26:32.352Z,49.44
2023-04-22T20:29:02.499Z,49.33
2023-04-22T20:31:31.152Z,48.87
2023-04-22T20:33:58.337Z,49.17
2023-04-22T20:36:26.361Z,49.21
2023-04-22T20:38:56.124Z,49.35
2023-04-22T20:41:24.458Z,49.33
2023-04-22T20:43:51.648Z,49.11
2023-04-22T20:46:20.749Z,49.45
2023-04-22T20:48:50.451Z,50.28
2023-04-22T20:51:17.375Z,50.71
2023-04-22T20:53:45.227Z,51.06
2023-04-22T20:56:12.331Z,51.83
2023-04-22T20:58:39.430Z,51.41
2023-04-22T21:01:08.725Z,51.92
2023-04-22T21:03:39.094Z,52.07
2023-04-22T21:06:08.659Z,52.18
2023-04-22T21:08:36.754Z,52.32
2023-04-22T21:11:04.348Z,52.70
2023-04-22T21:13:32.037Z,52.02
2023-04-22T21:16:02.741Z,51.93
2023-04-22T21:18:33.603Z,52.00
2023-04-22T21:21:03.880Z,51.86
2023-04-22T21:23:33.067Z,52.68
2023-04-22T21:26:02.635Z,52.44
2023-04-22T21:28:30.348Z,53.17
2023-04-22T21:30:58.000Z,53.37
2023-04-22T21:33:25.332Z,53.93
2023-04-22T21:35:52.909Z,53.97
2023-04-22T21:38:20.173Z,54.42
2023-04-22T21:40:48.594Z,54.37
2023-04-22T21:43:15.585Z,54.21
2023-04-22T21:45:42.453Z,54.15
2023-04-22T21:48:09.413Z,54.53
2023-04-22T21:50:36.597Z,54.88
2023-04-22T21:53:03.611Z,54.86
2023-04-22T21:55:30.593Z,55.50
2023-04-22T21:57:58.830Z,55.43
2023-04-22T22:00:27.082Z,55.56
2023-04-22T22:02:54.269Z,55.73
2023-04-22T22:05:21.267Z,55.56
2023-04-22T22:07:48.909Z,55.35
2023-04-22T22:10:22.371Z,55.50
2023-04-22T22:12:49.842Z,55.76
2023-04-22T22:15:18.429Z,56.75
2023-04-22T22:17:45.978Z,56.16
2023-04-22T22:20:20.109Z,56.34
2023-04-22T22:22:47.864Z,55.89
2023-04-22T22:25:16.377Z,55.86
2023-04-22T22:27:46.611Z,55.96
2023-04-22T22:30:14.817Z,55.37
2023-04-22T22:32:43.199Z,55.89
2023-04-22T22:35:11.003Z,55.83
2023-04-22T22:37:38.001Z,55.34
2023-04-22T22:40:06.584Z,55.87
2023-04-22T22:42:33.523Z,56.03
2023-04-22T22:45:00.547Z,56.01
2023-04-22T22:47:27.623Z,56.18
2023-04-22T22:49:56.183Z,56.85
2023-04-22T22:52:23.187Z,56.90
2023-04-22T22:54:50.341Z,57.17
2023-04-22T22:57:17.301Z,56.94
2023-04-22T22:59:44.201Z,56.92
2023-04-22T23:02:11.625Z,56.82
2023-04-22T23:04:39.723Z,57.22
2023-04-22T23:07:08.261Z,56.92
2023-04-22T23:09:35.269Z,56.86
2023-04-22T23:12:02.721Z,57.30
2023-04-22T23:14:29.940Z,57.34
2023-04-22T23:16:56.912Z,57.90
2023-04-22T23:19:25.614Z,57.52
2023-04-22T23:21:56.231Z,57.50
2023-04-22T23:24:25.458Z,57.67
2023-04-22T23:26:53.100Z,57.50
2023-04-22T23:29:21.009Z,57.25
2023-04-22T23:31:51.050Z,56.90
2023-04-22T23:34:23.776Z,56.92
2023-04-22T23:36:52.804Z,56.49
2023-04-22T23:39:19.883Z,56.28
2023-04-22T23:41:48.188Z,55.67
2023-04-22T23:44:15.221Z,55.80
2023-04-22T23:46:42.343Z,55.63
2023-04-22T23:49:09.319Z,55.80
2023-04-22T23:51:36.775Z,55.07
2023-04-22T23:54:03.932Z,54.82
2023-04-22T23:56:31.704Z,54.73
2023-04-22T23:59:00.723Z,55.13
